sensor_id;sensor_type;location;lat;lon;timestamp;P1;durP1;ratioP1;P2;durP2;ratioP2
12713;SDS011;6421;44.470;11.270;2022-09-09T00:00:47;5.83;;;2.87;;
12713;SDS011;6421;44.470;11.270;2022-09-09T00:03:44;3.53;;;2.40;;
12713;SDS011;6421;44.470;11.270;2022-09-09T00:06:21;6.47;;;2.60;;
12713;SDS011;6421;44.470;11.270;2022-09-09T00:14:16;3.83;;;2.60;;
12713;SDS011;6421;44.470;11.270;2022-09-09T00:16:50;5.47;;;2.80;;
12713;SDS011;6421;44.470;11.270;2022-09-09T00:19:30;5.67;;;3.00;;
12713;SDS011;6421;44.470;11.270;2022-09-09T00:22:15;5.37;;;2.60;;
12713;SDS011;6421;44.470;11.270;2022-09-09T00:24:44;2.97;;;2.30;;
12713;SDS011;6421;44.470;11.270;2022-09-09T00:27:15;5.50;;;2.63;;
12713;SDS011;6421;44.470;11.270;2022-09-09T00:32:19;3.43;;;2.47;;
12713;SDS011;6421;44.470;11.270;2022-09-09T00:34:50;5.70;;;2.87;;
12713;SDS011;6421;44.470;11.270;2022-09-09T00:37:20;5.13;;;2.70;;
12713;SDS011;6421;44.470;11.270;2022-09-09T00:39:50;5.90;;;2.37;;
12713;SDS011;6421;44.470;11.270;2022-09-09T00:50:22;6.33;;;2.70;;
12713;SDS011;6421;44.470;11.270;2022-09-09T00:58:13;6.23;;;2.93;;
12713;SDS011;6421;44.470;11.270;2022-09-09T01:03:39;4.07;;;2.70;;
12713;SDS011;6421;44.470;11.270;2022-09-09T01:14:30;3.33;;;2.30;;
12713;SDS011;6421;44.470;11.270;2022-09-09T01:22:44;4.67;;;2.60;;
12713;SDS011;6421;44.470;11.270;2022-09-09T01:25:18;5.63;;;2.97;;
12713;SDS011;6421;44.470;11.270;2022-09-09T01:28:16;4.13;;;2.47;;
12713;SDS011;6421;44.470;11.270;2022-09-09T01:30:46;4.57;;;2.73;;
12713;SDS011;6421;44.470;11.270;2022-09-09T01:33:13;3.80;;;2.80;;
12713;SDS011;6421;44.470;11.270;2022-09-09T01:38:15;4.10;;;2.80;;
12713;SDS011;6421;44.470;11.270;2022-09-09T01:40:43;6.17;;;2.57;;
12713;SDS011;6421;44.470;11.270;2022-09-09T01:43:09;4.20;;;2.70;;
12713;SDS011;6421;44.470;11.270;2022-09-09T01:45:35;4.63;;;3.07;;
12713;SDS011;6421;44.470;11.270;2022-09-09T01:48:02;6.13;;;2.70;;
12713;SDS011;6421;44.470;11.270;2022-09-09T01:50:28;6.57;;;2.67;;
12713;SDS011;6421;44.470;11.270;2022-09-09T01:52:57;6.07;;;2.70;;
12713;SDS011;6421;44.470;11.270;2022-09-09T01:55:28;3.53;;;2.47;;
12713;SDS011;6421;44.470;11.270;2022-09-09T02:03:56;4.90;;;2.97;;
12713;SDS011;6421;44.470;11.270;2022-09-09T02:06:28;4.60;;;3.00;;
12713;SDS011;6421;44.470;11.270;2022-09-09T02:09:04;5.90;;;3.07;;
12713;SDS011;6421;44.470;11.270;2022-09-09T02:11:32;5.10;;;2.77;;
12713;SDS011;6421;44.470;11.270;2022-09-09T02:14:33;5.57;;;2.80;;
12713;SDS011;6421;44.470;11.270;2022-09-09T02:16:57;6.27;;;2.90;;
12713;SDS011;6421;44.470;11.270;2022-09-09T02:19:36;7.17;;;3.47;;
12713;SDS011;6421;44.470;11.270;2022-09-09T02:22:06;4.47;;;3.10;;
12713;SDS011;6421;44.470;11.270;2022-09-09T02:24:39;6.07;;;3.27;;
12713;SDS011;6421;44.470;11.270;2022-09-09T02:27:06;7.43;;;3.30;;
12713;SDS011;6421;44.470;11.270;2022-09-09T02:29:35;6.13;;;3.40;;
12713;SDS011;6421;44.470;11.270;2022-09-09T02:32:05;6.23;;;3.37;;
12713;SDS011;6421;44.470;11.270;2022-09-09T02:34:34;5.80;;;3.43;;
12713;SDS011;6421;44.470;11.270;2022-09-09T02:37:04;8.33;;;3.77;;
12713;SDS011;6421;44.470;11.270;2022-09-09T02:39:33;7.40;;;3.27;;
12713;SDS011;6421;44.470;11.270;2022-09-09T02:41:58;4.57;;;3.00;;
12713;SDS011;6421;44.470;11.270;2022-09-09T02:44:24;5.07;;;3.13;;
12713;SDS011;6421;44.470;11.270;2022-09-09T02:47:00;5.23;;;3.10;;
12713;SDS011;6421;44.470;11.270;2022-09-09T02:55:25;4.17;;;3.00;;
12713;SDS011;6421;44.470;11.270;2022-09-09T02:57:54;5.17;;;3.20;;
12713;SDS011;6421;44.470;11.270;2022-09-09T03:00:22;9.60;;;3.53;;
12713;SDS011;6421;44.470;11.270;2022-09-09T03:02:49;4.50;;;3.10;;
12713;SDS011;6421;44.470;11.270;2022-09-09T03:05:16;5.70;;;3.23;;
12713;SDS011;6421;44.470;11.270;2022-09-09T03:07:42;4.93;;;3.50;;
12713;SDS011;6421;44.470;11.270;2022-09-09T03:10:08;5.20;;;3.17;;
12713;SDS011;6421;44.470;11.270;2022-09-09T03:12:35;4.37;;;3.17;;
12713;SDS011;6421;44.470;11.270;2022-09-09T03:15:01;4.67;;;3.03;;
12713;SDS011;6421;44.470;11.270;2022-09-09T03:17:27;5.40;;;3.10;;
12713;SDS011;6421;44.470;11.270;2022-09-09T03:19:53;4.13;;;3.17;;
12713;SDS011;6421;44.470;11.270;2022-09-09T03:22:20;5.77;;;3.23;;
12713;SDS011;6421;44.470;11.270;2022-09-09T03:24:46;3.57;;;3.00;;
12713;SDS011;6421;44.470;11.270;2022-09-09T03:27:12;6.33;;;3.53;;
12713;SDS011;6421;44.470;11.270;2022-09-09T03:29:39;3.60;;;2.63;;
12713;SDS011;6421;44.470;11.270;2022-09-09T03:32:05;4.40;;;2.73;;
12713;SDS011;6421;44.470;11.270;2022-09-09T03:34:31;7.17;;;2.70;;
12713;SDS011;6421;44.470;11.270;2022-09-09T03:36:57;5.83;;;2.73;;
12713;SDS011;6421;44.470;11.270;2022-09-09T03:39:23;4.67;;;2.47;;
12713;SDS011;6421;44.470;11.270;2022-09-09T03:41:49;6.03;;;2.80;;
12713;SDS011;6421;44.470;11.270;2022-09-09T03:44:15;7.50;;;2.80;;
12713;SDS011;6421;44.470;11.270;2022-09-09T03:46:41;5.10;;;3.20;;
12713;SDS011;6421;44.470;11.270;2022-09-09T03:49:07;3.10;;;2.80;;
12713;SDS011;6421;44.470;11.270;2022-09-09T03:51:34;5.10;;;2.50;;
12713;SDS011;6421;44.470;11.270;2022-09-09T03:54:01;4.53;;;2.90;;
12713;SDS011;6421;44.470;11.270;2022-09-09T03:56:29;6.30;;;3.20;;
12713;SDS011;6421;44.470;11.270;2022-09-09T03:58:56;7.40;;;2.80;;
12713;SDS011;6421;44.470;11.270;2022-09-09T04:01:22;4.47;;;2.90;;
12713;SDS011;6421;44.470;11.270;2022-09-09T04:03:48;5.40;;;2.80;;
12713;SDS011;6421;44.470;11.270;2022-09-09T04:06:15;8.53;;;3.00;;
12713;SDS011;6421;44.470;11.270;2022-09-09T04:08:42;5.40;;;2.77;;
12713;SDS011;6421;44.470;11.270;2022-09-09T04:11:08;5.57;;;2.83;;
12713;SDS011;6421;44.470;11.270;2022-09-09T04:13:35;3.87;;;2.53;;
12713;SDS011;6421;44.470;11.270;2022-09-09T04:16:05;4.67;;;2.80;;
12713;SDS011;6421;44.470;11.270;2022-09-09T04:18:31;5.43;;;3.20;;
12713;SDS011;6421;44.470;11.270;2022-09-09T04:20:57;8.73;;;3.23;;
12713;SDS011;6421;44.470;11.270;2022-09-09T04:23:24;4.40;;;2.77;;
12713;SDS011;6421;44.470;11.270;2022-09-09T04:25:52;5.77;;;2.73;;
12713;SDS011;6421;44.470;11.270;2022-09-09T04:28:20;5.80;;;2.70;;
12713;SDS011;6421;44.470;11.270;2022-09-09T04:30:47;4.90;;;2.80;;
12713;SDS011;6421;44.470;11.270;2022-09-09T04:33:13;3.00;;;2.60;;
12713;SDS011;6421;44.470;11.270;2022-09-09T04:35:43;7.20;;;3.13;;
12713;SDS011;6421;44.470;11.270;2022-09-09T04:38:10;9.63;;;3.17;;
12713;SDS011;6421;44.470;11.270;2022-09-09T04:40:36;5.43;;;3.37;;
12713;SDS011;6421;44.470;11.270;2022-09-09T04:43:03;6.03;;;3.43;;
12713;SDS011;6421;44.470;11.270;2022-09-09T04:45:29;7.00;;;3.23;;
12713;SDS011;6421;44.470;11.270;2022-09-09T04:47:56;9.93;;;3.47;;
12713;SDS011;6421;44.470;11.270;2022-09-09T04:50:21;6.77;;;3.20;;
12713;SDS011;6421;44.470;11.270;2022-09-09T04:52:47;3.67;;;3.03;;
12713;SDS011;6421;44.470;11.270;2022-09-09T04:55:13;5.03;;;3.20;;
12713;SDS011;6421;44.470;11.270;2022-09-09T04:57:39;5.63;;;3.20;;
12713;SDS011;6421;44.470;11.270;2022-09-09T05:00:05;5.73;;;3.33;;
12713;SDS011;6421;44.470;11.270;2022-09-09T05:02:31;6.20;;;2.90;;
12713;SDS011;6421;44.470;11.270;2022-09-09T05:04:57;5.27;;;2.97;;
12713;SDS011;6421;44.470;11.270;2022-09-09T05:07:23;5.33;;;3.47;;
12713;SDS011;6421;44.470;11.270;2022-09-09T05:09:49;3.27;;;2.83;;
12713;SDS011;6421;44.470;11.270;2022-09-09T05:12:15;5.03;;;2.77;;
12713;SDS011;6421;44.470;11.270;2022-09-09T05:14:44;7.60;;;4.93;;
12713;SDS011;6421;44.470;11.270;2022-09-09T05:17:10;4.93;;;3.30;;
12713;SDS011;6421;44.470;11.270;2022-09-09T05:19:36;4.83;;;3.10;;
12713;SDS011;6421;44.470;11.270;2022-09-09T05:22:02;5.20;;;2.70;;
12713;SDS011;6421;44.470;11.270;2022-09-09T05:24:27;4.77;;;3.20;;
12713;SDS011;6421;44.470;11.270;2022-09-09T05:26:54;8.10;;;3.47;;
12713;SDS011;6421;44.470;11.270;2022-09-09T05:29:24;6.70;;;2.80;;
12713;SDS011;6421;44.470;11.270;2022-09-09T05:31:51;5.40;;;2.90;;
12713;SDS011;6421;44.470;11.270;2022-09-09T05:34:17;4.07;;;2.67;;
12713;SDS011;6421;44.470;11.270;2022-09-09T05:36:42;3.70;;;2.70;;
12713;SDS011;6421;44.470;11.270;2022-09-09T05:39:08;7.63;;;3.00;;
12713;SDS011;6421;44.470;11.270;2022-09-09T05:41:34;6.93;;;3.40;;
12713;SDS011;6421;44.470;11.270;2022-09-09T05:44:00;10.27;;;3.37;;
12713;SDS011;6421;44.470;11.270;2022-09-09T05:46:26;7.07;;;2.83;;
12713;SDS011;6421;44.470;11.270;2022-09-09T05:48:52;7.30;;;3.40;;
12713;SDS011;6421;44.470;11.270;2022-09-09T05:51:19;7.50;;;2.60;;
12713;SDS011;6421;44.470;11.270;2022-09-09T05:53:47;5.97;;;2.60;;
12713;SDS011;6421;44.470;11.270;2022-09-09T05:58:40;5.07;;;2.47;;
12713;SDS011;6421;44.470;11.270;2022-09-09T06:01:12;6.83;;;2.67;;
12713;SDS011;6421;44.470;11.270;2022-09-09T06:03:41;6.07;;;2.37;;
12713;SDS011;6421;44.470;11.270;2022-09-09T06:06:09;3.28;;;2.10;;
12713;SDS011;6421;44.470;11.270;2022-09-09T06:08:37;6.57;;;2.40;;
12713;SDS011;6421;44.470;11.270;2022-09-09T06:11:09;4.15;;;2.50;;
12713;SDS011;6421;44.470;11.270;2022-09-09T06:13:36;5.70;;;2.20;;
12713;SDS011;6421;44.470;11.270;2022-09-09T06:16:04;10.75;;;2.70;;
12713;SDS011;6421;44.470;11.270;2022-09-09T06:18:32;6.43;;;2.50;;
12713;SDS011;6421;44.470;11.270;2022-09-09T06:20:58;4.10;;;2.83;;
12713;SDS011;6421;44.470;11.270;2022-09-09T06:23:26;9.40;;;2.70;;
12713;SDS011;6421;44.470;11.270;2022-09-09T06:25:52;3.28;;;2.40;;
12713;SDS011;6421;44.470;11.270;2022-09-09T06:28:26;6.47;;;2.47;;
12713;SDS011;6421;44.470;11.270;2022-09-09T06:30:57;6.55;;;2.40;;
12713;SDS011;6421;44.470;11.270;2022-09-09T06:33:26;10.23;;;2.63;;
12713;SDS011;6421;44.470;11.270;2022-09-09T06:35:55;6.53;;;2.85;;
12713;SDS011;6421;44.470;11.270;2022-09-09T06:38:22;11.48;;;3.25;;
12713;SDS011;6421;44.470;11.270;2022-09-09T06:40:54;6.27;;;2.87;;
12713;SDS011;6421;44.470;11.270;2022-09-09T06:43:24;6.83;;;2.70;;
12713;SDS011;6421;44.470;11.270;2022-09-09T06:45:58;8.27;;;2.70;;
12713;SDS011;6421;44.470;11.270;2022-09-09T06:48:25;4.33;;;2.50;;
12713;SDS011;6421;44.470;11.270;2022-09-09T06:51:03;9.93;;;3.73;;
12713;SDS011;6421;44.470;11.270;2022-09-09T06:53:30;5.97;;;2.63;;
12713;SDS011;6421;44.470;11.270;2022-09-09T06:55:59;8.67;;;2.90;;
12713;SDS011;6421;44.470;11.270;2022-09-09T06:58:27;9.23;;;2.80;;
12713;SDS011;6421;44.470;11.270;2022-09-09T07:01:00;10.50;;;2.50;;
12713;SDS011;6421;44.470;11.270;2022-09-09T07:03:27;9.45;;;2.80;;
12713;SDS011;6421;44.470;11.270;2022-09-09T07:05:53;8.10;;;2.65;;
12713;SDS011;6421;44.470;11.270;2022-09-09T07:08:21;5.83;;;3.00;;
12713;SDS011;6421;44.470;11.270;2022-09-09T07:10:47;8.25;;;2.78;;
12713;SDS011;6421;44.470;11.270;2022-09-09T07:13:12;6.97;;;2.70;;
12713;SDS011;6421;44.470;11.270;2022-09-09T07:15:40;8.27;;;2.63;;
12713;SDS011;6421;44.470;11.270;2022-09-09T07:18:06;6.77;;;2.50;;
12713;SDS011;6421;44.470;11.270;2022-09-09T07:20:32;6.63;;;2.47;;
12713;SDS011;6421;44.470;11.270;2022-09-09T07:22:57;5.13;;;2.93;;
12713;SDS011;6421;44.470;11.270;2022-09-09T07:25:24;7.80;;;3.57;;
12713;SDS011;6421;44.470;11.270;2022-09-09T07:27:52;15.67;;;10.17;;
12713;SDS011;6421;44.470;11.270;2022-09-09T07:30:19;18.63;;;15.20;;
12713;SDS011;6421;44.470;11.270;2022-09-09T07:32:45;8.17;;;4.60;;
12713;SDS011;6421;44.470;11.270;2022-09-09T07:35:11;4.80;;;2.63;;
12713;SDS011;6421;44.470;11.270;2022-09-09T07:37:37;3.23;;;2.30;;
12713;SDS011;6421;44.470;11.270;2022-09-09T07:40:03;3.30;;;2.30;;
12713;SDS011;6421;44.470;11.270;2022-09-09T07:42:30;7.50;;;2.63;;
12713;SDS011;6421;44.470;11.270;2022-09-09T07:44:56;2.75;;;2.13;;
12713;SDS011;6421;44.470;11.270;2022-09-09T07:47:21;2.73;;;1.97;;
12713;SDS011;6421;44.470;11.270;2022-09-09T07:49:49;3.38;;;2.00;;
12713;SDS011;6421;44.470;11.270;2022-09-09T07:52:15;5.10;;;2.03;;
12713;SDS011;6421;44.470;11.270;2022-09-09T07:54:41;3.30;;;2.00;;
12713;SDS011;6421;44.470;11.270;2022-09-09T07:57:07;2.28;;;1.70;;
12713;SDS011;6421;44.470;11.270;2022-09-09T07:59:33;3.25;;;1.55;;
12713;SDS011;6421;44.470;11.270;2022-09-09T08:01:58;2.10;;;1.90;;
12713;SDS011;6421;44.470;11.270;2022-09-09T08:04:25;2.85;;;2.15;;
12713;SDS011;6421;44.470;11.270;2022-09-09T08:07:00;3.35;;;2.15;;
12713;SDS011;6421;44.470;11.270;2022-09-09T08:09:28;2.85;;;1.75;;
12713;SDS011;6421;44.470;11.270;2022-09-09T08:11:54;2.35;;;1.60;;
12713;SDS011;6421;44.470;11.270;2022-09-09T08:14:25;2.60;;;1.80;;
12713;SDS011;6421;44.470;11.270;2022-09-09T08:16:51;1.75;;;1.65;;
12713;SDS011;6421;44.470;11.270;2022-09-09T08:19:19;1.60;;;1.50;;
12713;SDS011;6421;44.470;11.270;2022-09-09T08:21:45;2.95;;;1.73;;
12713;SDS011;6421;44.470;11.270;2022-09-09T08:24:11;2.15;;;1.90;;
12713;SDS011;6421;44.470;11.270;2022-09-09T08:26:40;6.13;;;2.05;;
12713;SDS011;6421;44.470;11.270;2022-09-09T08:29:07;1.80;;;1.70;;
12713;SDS011;6421;44.470;11.270;2022-09-09T08:31:45;4.70;;;2.17;;
12713;SDS011;6421;44.470;11.270;2022-09-09T08:34:12;6.93;;;2.40;;
12713;SDS011;6421;44.470;11.270;2022-09-09T08:36:39;4.07;;;2.42;;
12713;SDS011;6421;44.470;11.270;2022-09-09T08:39:10;6.43;;;3.30;;
12713;SDS011;6421;44.470;11.270;2022-09-09T08:52:32;9.75;;;4.28;;
12713;SDS011;6421;44.470;11.270;2022-09-09T08:57:53;3.90;;;3.20;;
12713;SDS011;6421;44.470;11.270;2022-09-09T09:00:21;6.95;;;3.58;;
12713;SDS011;6421;44.470;11.270;2022-09-09T09:08:29;7.97;;;3.03;;
12713;SDS011;6421;44.470;11.270;2022-09-09T09:11:10;8.05;;;3.08;;
12713;SDS011;6421;44.470;11.270;2022-09-09T09:16:26;7.95;;;3.10;;
12713;SDS011;6421;44.470;11.270;2022-09-09T09:18:58;5.15;;;3.08;;
12713;SDS011;6421;44.470;11.270;2022-09-09T09:21:36;6.75;;;3.33;;
12713;SDS011;6421;44.470;11.270;2022-09-09T09:26:44;3.83;;;3.03;;
12713;SDS011;6421;44.470;11.270;2022-09-09T09:29:11;4.65;;;3.00;;
12713;SDS011;6421;44.470;11.270;2022-09-09T09:31:41;4.63;;;2.58;;
12713;SDS011;6421;44.470;11.270;2022-09-09T09:34:19;4.65;;;2.72;;
12713;SDS011;6421;44.470;11.270;2022-09-09T09:36:46;2.75;;;2.55;;
12713;SDS011;6421;44.470;11.270;2022-09-09T09:39:33;4.75;;;2.70;;
12713;SDS011;6421;44.470;11.270;2022-09-09T09:42:11;4.00;;;2.58;;
12713;SDS011;6421;44.470;11.270;2022-09-09T09:44:40;5.50;;;2.60;;
12713;SDS011;6421;44.470;11.270;2022-09-09T09:49:32;7.68;;;3.00;;
12713;SDS011;6421;44.470;11.270;2022-09-09T09:52:02;7.28;;;2.63;;
12713;SDS011;6421;44.470;11.270;2022-09-09T09:54:29;4.35;;;2.60;;
12713;SDS011;6421;44.470;11.270;2022-09-09T09:57:09;4.40;;;2.72;;
12713;SDS011;6421;44.470;11.270;2022-09-09T09:59:37;8.15;;;2.85;;
12713;SDS011;6421;44.470;11.270;2022-09-09T10:02:13;3.60;;;2.28;;
12713;SDS011;6421;44.470;11.270;2022-09-09T10:05:00;4.30;;;2.92;;
12713;SDS011;6421;44.470;11.270;2022-09-09T10:07:47;6.95;;;2.65;;
12713;SDS011;6421;44.470;11.270;2022-09-09T10:10:26;5.70;;;2.35;;
12713;SDS011;6421;44.470;11.270;2022-09-09T10:18:40;2.63;;;2.42;;
12713;SDS011;6421;44.470;11.270;2022-09-09T10:26:54;5.03;;;3.08;;
12713;SDS011;6421;44.470;11.270;2022-09-09T10:35:02;9.27;;;3.03;;
12713;SDS011;6421;44.470;11.270;2022-09-09T10:51:29;5.03;;;2.67;;
12713;SDS011;6421;44.470;11.270;2022-09-09T10:56:34;4.68;;;2.95;;
12713;SDS011;6421;44.470;11.270;2022-09-09T11:01:31;5.03;;;2.63;;
12713;SDS011;6421;44.470;11.270;2022-09-09T11:04:15;3.47;;;2.38;;
12713;SDS011;6421;44.470;11.270;2022-09-09T11:06:52;4.18;;;2.70;;
12713;SDS011;6421;44.470;11.270;2022-09-09T11:09:31;3.60;;;2.67;;
12713;SDS011;6421;44.470;11.270;2022-09-09T11:12:02;7.63;;;2.38;;
12713;SDS011;6421;44.470;11.270;2022-09-09T11:19:53;4.88;;;2.33;;
12713;SDS011;6421;44.470;11.270;2022-09-09T11:30:20;4.45;;;2.40;;
12713;SDS011;6421;44.470;11.270;2022-09-09T11:38:18;2.75;;;2.13;;
12713;SDS011;6421;44.470;11.270;2022-09-09T11:41:02;2.78;;;2.05;;
12713;SDS011;6421;44.470;11.270;2022-09-09T11:43:44;2.47;;;1.77;;
12713;SDS011;6421;44.470;11.270;2022-09-09T11:46:13;2.78;;;2.08;;
12713;SDS011;6421;44.470;11.270;2022-09-09T11:48:41;3.53;;;1.95;;
12713;SDS011;6421;44.470;11.270;2022-09-09T11:51:11;4.10;;;1.98;;
12713;SDS011;6421;44.470;11.270;2022-09-09T11:53:47;2.13;;;1.92;;
12713;SDS011;6421;44.470;11.270;2022-09-09T11:56:23;2.45;;;1.92;;
12713;SDS011;6421;44.470;11.270;2022-09-09T11:58:59;2.55;;;2.28;;
12713;SDS011;6421;44.470;11.270;2022-09-09T12:04:04;4.97;;;2.75;;
12713;SDS011;6421;44.470;11.270;2022-09-09T12:06:58;2.10;;;1.90;;
12713;SDS011;6421;44.470;11.270;2022-09-09T12:19:40;7.30;;;2.47;;
12713;SDS011;6421;44.470;11.270;2022-09-09T12:22:07;7.30;;;2.63;;
12713;SDS011;6421;44.470;11.270;2022-09-09T12:25:08;11.38;;;2.33;;
12713;SDS011;6421;44.470;11.270;2022-09-09T12:27:36;4.68;;;2.20;;
12713;SDS011;6421;44.470;11.270;2022-09-09T12:30:11;3.53;;;2.35;;
12713;SDS011;6421;44.470;11.270;2022-09-09T12:32:39;3.42;;;1.90;;
12713;SDS011;6421;44.470;11.270;2022-09-09T12:37:49;2.83;;;2.25;;
12713;SDS011;6421;44.470;11.270;2022-09-09T12:40:25;3.25;;;2.10;;
12713;SDS011;6421;44.470;11.270;2022-09-09T12:42:57;2.70;;;1.60;;
12713;SDS011;6421;44.470;11.270;2022-09-09T12:45:26;2.35;;;2.15;;
12713;SDS011;6421;44.470;11.270;2022-09-09T12:50:30;6.10;;;2.40;;
12713;SDS011;6421;44.470;11.270;2022-09-09T12:53:03;3.53;;;2.13;;
12713;SDS011;6421;44.470;11.270;2022-09-09T12:55:34;4.47;;;2.55;;
12713;SDS011;6421;44.470;11.270;2022-09-09T12:58:03;3.28;;;2.25;;
12713;SDS011;6421;44.470;11.270;2022-09-09T13:00:31;1.67;;;1.58;;
12713;SDS011;6421;44.470;11.270;2022-09-09T13:02:58;1.92;;;1.83;;
12713;SDS011;6421;44.470;11.270;2022-09-09T13:05:27;1.70;;;1.60;;
12713;SDS011;6421;44.470;11.270;2022-09-09T13:08:06;1.55;;;1.40;;
12713;SDS011;6421;44.470;11.270;2022-09-09T13:10:44;2.00;;;1.58;;
12713;SDS011;6421;44.470;11.270;2022-09-09T13:13:26;2.00;;;1.63;;
12713;SDS011;6421;44.470;11.270;2022-09-09T13:15:58;1.75;;;1.65;;
12713;SDS011;6421;44.470;11.270;2022-09-09T13:18:27;1.50;;;1.50;;
12713;SDS011;6421;44.470;11.270;2022-09-09T13:20:55;1.80;;;1.70;;
12713;SDS011;6421;44.470;11.270;2022-09-09T13:23:23;1.67;;;1.58;;
12713;SDS011;6421;44.470;11.270;2022-09-09T13:25:57;3.35;;;2.47;;
12713;SDS011;6421;44.470;11.270;2022-09-09T13:28:42;1.67;;;1.55;;
12713;SDS011;6421;44.470;11.270;2022-09-09T13:31:23;3.72;;;2.50;;
12713;SDS011;6421;44.470;11.270;2022-09-09T13:33:49;3.75;;;2.22;;
12713;SDS011;6421;44.470;11.270;2022-09-09T13:36:17;4.45;;;2.70;;
12713;SDS011;6421;44.470;11.270;2022-09-09T13:38:57;2.50;;;1.98;;
12713;SDS011;6421;44.470;11.270;2022-09-09T13:41:25;3.95;;;2.13;;
12713;SDS011;6421;44.470;11.270;2022-09-09T13:44:01;3.60;;;2.63;;
12713;SDS011;6421;44.470;11.270;2022-09-09T13:46:35;3.67;;;2.20;;
12713;SDS011;6421;44.470;11.270;2022-09-09T13:52:03;4.57;;;2.53;;
12713;SDS011;6421;44.470;11.270;2022-09-09T13:54:28;5.53;;;2.90;;
12713;SDS011;6421;44.470;11.270;2022-09-09T13:56:55;5.75;;;2.72;;
12713;SDS011;6421;44.470;11.270;2022-09-09T13:59:21;3.55;;;2.53;;
12713;SDS011;6421;44.470;11.270;2022-09-09T14:01:47;5.53;;;2.70;;
12713;SDS011;6421;44.470;11.270;2022-09-09T14:04:14;1.92;;;1.83;;
12713;SDS011;6421;44.470;11.270;2022-09-09T14:06:40;1.70;;;1.60;;
12713;SDS011;6421;44.470;11.270;2022-09-09T14:09:07;3.90;;;2.47;;
12713;SDS011;6421;44.470;11.270;2022-09-09T14:11:36;3.20;;;2.10;;
12713;SDS011;6421;44.470;11.270;2022-09-09T14:14:02;4.63;;;2.00;;
12713;SDS011;6421;44.470;11.270;2022-09-09T14:16:28;3.33;;;3.00;;
12713;SDS011;6421;44.470;11.270;2022-09-09T14:18:54;4.95;;;3.00;;
12713;SDS011;6421;44.470;11.270;2022-09-09T14:21:21;6.65;;;2.28;;
12713;SDS011;6421;44.470;11.270;2022-09-09T14:23:48;5.35;;;3.08;;
12713;SDS011;6421;44.470;11.270;2022-09-09T14:26:13;5.50;;;2.58;;
12713;SDS011;6421;44.470;11.270;2022-09-09T14:28:39;6.18;;;2.88;;
12713;SDS011;6421;44.470;11.270;2022-09-09T14:31:05;5.18;;;2.67;;
12713;SDS011;6421;44.470;11.270;2022-09-09T14:33:31;6.53;;;2.70;;
12713;SDS011;6421;44.470;11.270;2022-09-09T14:35:57;5.55;;;2.70;;
12713;SDS011;6421;44.470;11.270;2022-09-09T14:38:34;8.82;;;2.92;;
12713;SDS011;6421;44.470;11.270;2022-09-09T14:41:08;6.10;;;2.80;;
12713;SDS011;6421;44.470;11.270;2022-09-09T14:43:37;2.58;;;2.10;;
12713;SDS011;6421;44.470;11.270;2022-09-09T14:46:10;6.15;;;2.97;;
12713;SDS011;6421;44.470;11.270;2022-09-09T14:48:38;2.40;;;2.00;;
12713;SDS011;6421;44.470;11.270;2022-09-09T14:51:16;6.10;;;3.38;;
12713;SDS011;6421;44.470;11.270;2022-09-09T14:53:44;2.70;;;2.30;;
12713;SDS011;6421;44.470;11.270;2022-09-09T14:56:12;4.78;;;2.65;;
12713;SDS011;6421;44.470;11.270;2022-09-09T14:58:42;1.77;;;1.67;;
12713;SDS011;6421;44.470;11.270;2022-09-09T15:01:09;5.65;;;2.67;;
12713;SDS011;6421;44.470;11.270;2022-09-09T15:03:40;7.78;;;3.10;;
12713;SDS011;6421;44.470;11.270;2022-09-09T15:06:07;4.68;;;2.47;;
12713;SDS011;6421;44.470;11.270;2022-09-09T15:08:37;7.65;;;2.80;;
12713;SDS011;6421;44.470;11.270;2022-09-09T15:11:05;8.15;;;3.95;;
12713;SDS011;6421;44.470;11.270;2022-09-09T15:13:35;6.47;;;3.03;;
12713;SDS011;6421;44.470;11.270;2022-09-09T15:16:08;8.70;;;3.72;;
12713;SDS011;6421;44.470;11.270;2022-09-09T15:18:42;6.38;;;3.70;;
12713;SDS011;6421;44.470;11.270;2022-09-09T15:21:10;7.38;;;3.30;;
12713;SDS011;6421;44.470;11.270;2022-09-09T15:23:44;6.88;;;3.88;;
12713;SDS011;6421;44.470;11.270;2022-09-09T15:26:10;4.45;;;3.45;;
12713;SDS011;6421;44.470;11.270;2022-09-09T15:28:36;6.40;;;3.78;;
12713;SDS011;6421;44.470;11.270;2022-09-09T15:31:12;7.18;;;4.05;;
12713;SDS011;6421;44.470;11.270;2022-09-09T15:38:47;9.02;;;3.30;;
12713;SDS011;6421;44.470;11.270;2022-09-09T15:41:14;5.95;;;2.85;;
12713;SDS011;6421;44.470;11.270;2022-09-09T15:43:44;5.35;;;3.15;;
12713;SDS011;6421;44.470;11.270;2022-09-09T15:48:42;5.13;;;3.00;;
12713;SDS011;6421;44.470;11.270;2022-09-09T15:51:09;3.05;;;2.85;;
12713;SDS011;6421;44.470;11.270;2022-09-09T15:53:36;4.35;;;2.53;;
12713;SDS011;6421;44.470;11.270;2022-09-09T15:56:04;6.80;;;2.80;;
12713;SDS011;6421;44.470;11.270;2022-09-09T15:58:31;5.72;;;2.65;;
12713;SDS011;6421;44.470;11.270;2022-09-09T16:01:04;4.38;;;3.17;;
12713;SDS011;6421;44.470;11.270;2022-09-09T16:03:35;7.70;;;3.75;;
12713;SDS011;6421;44.470;11.270;2022-09-09T16:06:03;3.65;;;2.78;;
12713;SDS011;6421;44.470;11.270;2022-09-09T16:08:33;7.05;;;2.92;;
12713;SDS011;6421;44.470;11.270;2022-09-09T16:11:06;4.70;;;2.70;;
12713;SDS011;6421;44.470;11.270;2022-09-09T16:13:34;6.07;;;3.65;;
12713;SDS011;6421;44.470;11.270;2022-09-09T16:16:01;6.50;;;3.65;;
12713;SDS011;6421;44.470;11.270;2022-09-09T16:18:32;8.10;;;4.20;;
12713;SDS011;6421;44.470;11.270;2022-09-09T16:20:59;6.25;;;3.88;;
12713;SDS011;6421;44.470;11.270;2022-09-09T16:23:26;4.25;;;3.70;;
12713;SDS011;6421;44.470;11.270;2022-09-09T16:25:55;6.40;;;3.45;;
12713;SDS011;6421;44.470;11.270;2022-09-09T16:28:21;6.57;;;3.40;;
12713;SDS011;6421;44.470;11.270;2022-09-09T16:30:47;4.32;;;3.47;;
12713;SDS011;6421;44.470;11.270;2022-09-09T16:33:13;7.05;;;3.53;;
12713;SDS011;6421;44.470;11.270;2022-09-09T16:35:42;5.38;;;3.33;;
12713;SDS011;6421;44.470;11.270;2022-09-09T16:38:08;5.47;;;3.92;;
12713;SDS011;6421;44.470;11.270;2022-09-09T16:40:34;5.50;;;3.78;;
12713;SDS011;6421;44.470;11.270;2022-09-09T16:43:01;5.53;;;3.65;;
12713;SDS011;6421;44.470;11.270;2022-09-09T16:45:27;4.60;;;3.28;;
12713;SDS011;6421;44.470;11.270;2022-09-09T16:47:53;8.80;;;4.57;;
12713;SDS011;6421;44.470;11.270;2022-09-09T16:50:18;7.57;;;3.78;;
12713;SDS011;6421;44.470;11.270;2022-09-09T16:52:45;5.85;;;3.83;;
12713;SDS011;6421;44.470;11.270;2022-09-09T16:55:10;6.03;;;3.80;;
12713;SDS011;6421;44.470;11.270;2022-09-09T16:57:36;6.35;;;3.90;;
12713;SDS011;6421;44.470;11.270;2022-09-09T17:00:03;4.20;;;3.78;;
12713;SDS011;6421;44.470;11.270;2022-09-09T17:02:31;7.93;;;4.05;;
12713;SDS011;6421;44.470;11.270;2022-09-09T17:04:57;4.73;;;4.07;;
12713;SDS011;6421;44.470;11.270;2022-09-09T17:07:22;5.73;;;4.20;;
12713;SDS011;6421;44.470;11.270;2022-09-09T17:09:48;4.20;;;3.60;;
12713;SDS011;6421;44.470;11.270;2022-09-09T17:12:14;5.63;;;3.63;;
12713;SDS011;6421;44.470;11.270;2022-09-09T17:14:41;4.13;;;3.43;;
12713;SDS011;6421;44.470;11.270;2022-09-09T17:17:07;7.33;;;4.53;;
12713;SDS011;6421;44.470;11.270;2022-09-09T17:19:33;5.73;;;3.80;;
12713;SDS011;6421;44.470;11.270;2022-09-09T17:21:58;4.47;;;3.80;;
12713;SDS011;6421;44.470;11.270;2022-09-09T17:24:25;6.57;;;3.40;;
12713;SDS011;6421;44.470;11.270;2022-09-09T17:26:52;5.37;;;3.27;;
12713;SDS011;6421;44.470;11.270;2022-09-09T17:29:19;4.30;;;3.37;;
12713;SDS011;6421;44.470;11.270;2022-09-09T17:31:44;6.10;;;3.80;;
12713;SDS011;6421;44.470;11.270;2022-09-09T17:34:10;6.37;;;3.53;;
12713;SDS011;6421;44.470;11.270;2022-09-09T17:36:36;5.07;;;3.90;;
12713;SDS011;6421;44.470;11.270;2022-09-09T17:39:03;3.83;;;3.30;;
12713;SDS011;6421;44.470;11.270;2022-09-09T17:41:30;5.97;;;4.10;;
12713;SDS011;6421;44.470;11.270;2022-09-09T17:43:58;4.93;;;4.07;;
12713;SDS011;6421;44.470;11.270;2022-09-09T17:46:25;5.50;;;3.60;;